Time;durP1;ratioP1;P1;durP2;ratioP2;P2;SDS_P1;SDS_P2;PMS_P1;PMS_P2;Temp;Humidity;BMP_temperature;BMP_pressure;BME280_temperature;BME280_humidity;BME280_pressure;Samples;Min_cycle;Max_cycle;Signal;HPM_P1;HPM_P2
2023/01/19 00:00:39;;;;;;;117.70;43.78;;;-0.20;99.90;;;;;;5020108;28;20205;-72
2023/01/19 00:03:25;;;;;;;83.03;35.15;;;-0.20;99.90;;;;;;5020444;28;20267;-73
2023/01/19 00:06:11;;;;;;;65.78;28.80;;;-0.40;99.90;;;;;;5019767;28;20331;-72
2023/01/19 00:08:58;;;;;;;69.25;30.30;;;-0.50;99.90;;;;;;5020881;28;20218;-72
2023/01/19 00:11:44;;;;;;;62.88;28.33;;;-0.50;99.90;;;;;;5017566;28;20763;-73
2023/01/19 00:14:30;;;;;;;47.83;25.27;;;-0.60;99.90;;;;;;5028621;28;20735;-72
2023/01/19 00:17:15;;;;;;;56.65;27.75;;;-0.60;99.90;;;;;;5023499;28;20213;-72
2023/01/19 00:20:01;;;;;;;57.38;26.95;;;-0.50;99.90;;;;;;5026019;28;20348;-73
2023/01/19 00:22:49;;;;;;;45.15;26.30;;;-0.70;99.90;;;;;;5023301;28;20210;-73
2023/01/19 00:25:42;;;;;;;42.30;24.52;;;-0.70;99.90;;;;;;5029155;28;20397;-72
2023/01/19 00:28:27;;;;;;;34.00;21.67;;;-0.80;99.90;;;;;;5027784;28;20209;-73
2023/01/19 00:31:13;;;;;;;38.40;20.80;;;-0.70;99.90;;;;;;5019688;28;20209;-72
2023/01/19 00:33:59;;;;;;;39.58;21.48;;;-0.60;99.90;;;;;;5026674;28;20209;-73
2023/01/19 00:36:44;;;;;;;43.35;21.92;;;-0.60;99.90;;;;;;5024217;28;20590;-73
2023/01/19 00:39:30;;;;;;;43.80;22.52;;;-0.40;99.90;;;;;;5024307;28;20331;-73
2023/01/19 00:45:22;;;;;;;40.35;20.80;;;-0.40;99.90;;;;;;5028947;28;20233;-73
2023/01/19 00:48:09;;;;;;;29.58;19.77;;;-0.40;99.90;;;;;;5029183;28;20206;-72
2023/01/19 00:50:54;;;;;;;29.85;16.70;;;-0.50;99.90;;;;;;5017560;28;20214;-73
2023/01/19 00:53:40;;;;;;;30.60;18.27;;;-0.50;99.90;;;;;;5025684;28;20593;-73
2023/01/19 00:56:26;;;;;;;31.58;19.10;;;-0.40;99.90;;;;;;5025360;28;20632;-73
2023/01/19 00:59:13;;;;;;;33.50;20.45;;;-0.30;99.90;;;;;;5024566;28;20283;-73
2023/01/19 01:01:59;;;;;;;32.72;19.63;;;-0.20;99.90;;;;;;5026756;28;20690;-73
2023/01/19 01:04:44;;;;;;;29.63;18.55;;;-0.20;99.90;;;;;;5029138;28;20268;-73
2023/01/19 01:07:33;;;;;;;29.88;19.52;;;-0.10;99.90;;;;;;5034041;28;20283;-73
2023/01/19 01:10:22;;;;;;;34.17;20.55;;;-0.10;99.90;;;;;;5028675;28;20210;-72
2023/01/19 01:13:07;;;;;;;38.55;20.85;;;-0.10;99.90;;;;;;5027010;28;20214;-73
2023/01/19 01:15:56;;;;;;;30.60;18.40;;;0.00;99.90;;;;;;5039384;28;20581;-73
2023/01/19 01:18:41;;;;;;;33.35;19.38;;;0.00;99.90;;;;;;5035373;28;20212;-72
2023/01/19 01:21:27;;;;;;;37.17;20.65;;;0.10;99.90;;;;;;5027994;28;20619;-72
2023/01/19 01:24:12;;;;;;;33.53;18.63;;;0.10;99.90;;;;;;5034532;28;20212;-72
2023/01/19 01:26:58;;;;;;;33.50;18.52;;;0.10;99.90;;;;;;5042483;28;20283;-73
2023/01/19 01:29:45;;;;;;;36.38;20.10;;;0.00;99.90;;;;;;5033244;28;20675;-73
2023/01/19 01:32:32;;;;;;;40.70;23.52;;;0.00;99.90;;;;;;5029417;28;20202;-72
2023/01/19 01:35:18;;;;;;;45.45;25.17;;;0.00;99.90;;;;;;5037382;28;20772;-73
2023/01/19 01:38:04;;;;;;;51.55;26.98;;;0.00;99.90;;;;;;5029068;28;20201;-72
2023/01/19 01:40:50;;;;;;;45.40;26.40;;;0.10;99.90;;;;;;5027670;28;20205;-73
2023/01/19 01:43:44;;;;;;;41.40;24.10;;;0.20;99.90;;;;;;5024801;28;20208;-73
2023/01/19 01:46:31;;;;;;;39.08;24.90;;;0.30;99.90;;;;;;5042015;28;20718;-73
2023/01/19 01:49:18;;;;;;;46.83;25.58;;;0.30;99.90;;;;;;5032206;28;20292;-73
2023/01/19 01:52:04;;;;;;;40.45;23.63;;;0.40;99.90;;;;;;5031533;28;20209;-73
2023/01/19 01:54:51;;;;;;;34.08;23.35;;;0.40;99.90;;;;;;5034136;28;20694;-72
2023/01/19 01:57:42;;;;;;;41.47;24.15;;;0.40;99.90;;;;;;5032591;28;20304;-73
2023/01/19 02:02:49;;;;;;;40.95;24.00;;;0.50;99.90;;;;;;5024353;28;20210;-73
2023/01/19 02:03:33;;;;;;;44.83;25.60;;;0.50;99.90;;;;;;5036726;28;20217;-72
2023/01/19 02:06:21;;;;;;;43.13;25.30;;;0.50;99.90;;;;;;5032989;28;20288;-73
2023/01/19 02:15:19;;;;;;;39.95;21.17;;;0.70;99.90;;;;;;5033406;28;20212;-72
2023/01/19 02:18:04;;;;;;;33.65;20.48;;;0.60;99.90;;;;;;5037429;28;20234;-72
2023/01/19 02:20:59;;;;;;;27.70;18.92;;;0.70;99.90;;;;;;5033570;28;20255;-73
2023/01/19 02:23:48;;;;;;;34.45;20.27;;;0.70;99.90;;;;;;5032489;28;20206;-73
2023/01/19 02:26:38;;;;;;;37.85;21.48;;;0.70;99.90;;;;;;5038415;28;20403;-72
2023/01/19 02:29:25;;;;;;;42.22;24.58;;;0.80;99.90;;;;;;5025696;28;20264;-73
2023/01/19 02:32:12;;;;;;;48.30;25.33;;;0.80;99.90;;;;;;5034532;28;20205;-73
2023/01/19 02:34:57;;;;;;;46.88;25.27;;;0.80;99.90;;;;;;5021192;28;20598;-73
2023/01/19 02:37:44;;;;;;;48.60;27.95;;;0.80;99.90;;;;;;5036853;28;20205;-72
2023/01/19 02:40:32;;;;;;;60.53;31.05;;;0.80;99.90;;;;;;5027639;28;20204;-72
2023/01/19 02:43:20;;;;;;;76.38;38.40;;;0.90;99.90;;;;;;5039389;28;20646;-73
2023/01/19 02:46:06;;;;;;;72.13;35.15;;;0.90;99.90;;;;;;5028387;28;20262;-72
2023/01/19 02:48:51;;;;;;;68.78;34.10;;;0.80;99.90;;;;;;5028013;28;20217;-72
2023/01/19 02:51:37;;;;;;;65.70;34.22;;;0.80;99.90;;;;;;5035979;28;20205;-72
2023/01/19 02:54:42;;;;;;;46.47;30.08;;;0.80;99.90;;;;;;5021702;28;20380;-73
2023/01/19 02:57:50;;;;;;;42.25;26.70;;;0.70;99.90;;;;;;5031291;28;20682;-73
2023/01/19 03:00:46;;;;;;;43.58;26.08;;;0.70;99.90;;;;;;5032310;28;20201;-72
2023/01/19 03:03:39;;;;;;;46.10;28.00;;;0.70;99.90;;;;;;5035784;28;20201;-73
2023/01/19 03:06:36;;;;;;;38.90;26.02;;;0.70;99.90;;;;;;5026767;28;20433;-72
2023/01/19 03:09:27;;;;;;;43.05;25.23;;;0.80;99.90;;;;;;5016890;28;20205;-72
2023/01/19 03:12:20;;;;;;;38.45;25.08;;;0.70;99.90;;;;;;5033318;28;20209;-73
2023/01/19 03:15:14;;;;;;;40.67;25.08;;;0.80;99.90;;;;;;5042320;28;20217;-73
2023/01/19 03:18:02;;;;;;;40.33;24.73;;;0.80;99.90;;;;;;5023171;28;20201;-73
2023/01/19 03:20:52;;;;;;;39.50;24.60;;;0.70;99.90;;;;;;5027480;28;20291;-73
2023/01/19 03:23:40;;;;;;;30.73;22.27;;;0.80;99.90;;;;;;5030231;28;20817;-73
2023/01/19 03:26:30;;;;;;;29.55;20.30;;;0.80;99.90;;;;;;5033186;28;21965;-73
2023/01/19 03:29:17;;;;;;;29.23;18.10;;;0.90;99.90;;;;;;5021624;28;20213;-73
2023/01/19 03:32:10;;;;;;;23.85;14.70;;;1.00;99.90;;;;;;5032882;28;20209;-72
2023/01/19 03:34:59;;;;;;;20.80;14.23;;;1.00;99.90;;;;;;5032209;28;20287;-72
2023/01/19 03:37:48;;;;;;;20.80;12.85;;;1.00;99.90;;;;;;5024395;28;20202;-73
2023/01/19 03:40:36;;;;;;;25.80;15.52;;;1.10;99.90;;;;;;5034199;28;20597;-73
2023/01/19 03:43:23;;;;;;;22.17;15.82;;;1.20;99.90;;;;;;5038885;28;20737;-72
2023/01/19 03:46:10;;;;;;;21.98;14.07;;;1.30;99.90;;;;;;5036958;28;20307;-73
2023/01/19 03:48:58;;;;;;;19.63;12.88;;;1.40;99.90;;;;;;5024180;28;20217;-73
2023/01/19 03:51:44;;;;;;;23.65;13.65;;;1.40;99.90;;;;;;5028009;28;20683;-73
2023/01/19 03:54:29;;;;;;;19.20;14.68;;;1.50;99.90;;;;;;5029272;28;20210;-73
2023/01/19 03:57:15;;;;;;;22.42;13.15;;;1.50;99.90;;;;;;5026803;28;20206;-72
2023/01/19 04:00:01;;;;;;;22.65;14.63;;;1.60;99.90;;;;;;5029105;28;20218;-73
2023/01/19 04:02:47;;;;;;;21.77;15.35;;;1.60;99.90;;;;;;5028011;28;20201;-73
2023/01/19 04:05:34;;;;;;;18.77;13.85;;;1.70;99.90;;;;;;5027489;28;20741;-72
2023/01/19 04:08:19;;;;;;;22.33;14.55;;;1.80;99.90;;;;;;5021760;28;20276;-73
2023/01/19 04:11:05;;;;;;;25.38;14.05;;;1.70;99.90;;;;;;5031097;28;20213;-72
2023/01/19 04:13:50;;;;;;;17.90;13.10;;;1.80;99.90;;;;;;5035263;28;20690;-72
2023/01/19 04:16:36;;;;;;;22.63;15.32;;;1.80;99.90;;;;;;5036700;28;20226;-73
2023/01/19 04:19:22;;;;;;;20.92;13.77;;;1.70;99.90;;;;;;5027911;28;20206;-73
2023/01/19 04:22:09;;;;;;;20.08;14.75;;;1.80;99.90;;;;;;5032116;28;20210;-72
2023/01/19 04:24:55;;;;;;;23.83;15.70;;;1.90;99.90;;;;;;5029555;28;20205;-72
2023/01/19 04:27:41;;;;;;;19.92;13.98;;;1.90;99.90;;;;;;5027336;28;20224;-72
2023/01/19 04:30:27;;;;;;;23.25;14.20;;;1.90;99.90;;;;;;5036778;28;20210;-73
2023/01/19 04:33:12;;;;;;;23.05;15.20;;;1.90;99.90;;;;;;5032458;28;20262;-73
2023/01/19 04:35:58;;;;;;;18.33;13.50;;;2.00;99.90;;;;;;5035583;28;20718;-73
2023/01/19 04:38:47;;;;;;;23.27;15.63;;;2.00;99.90;;;;;;5034102;28;20221;-73
2023/01/19 04:41:33;;;;;;;20.67;13.75;;;2.00;99.90;;;;;;5035720;28;20684;-73
2023/01/19 04:44:19;;;;;;;19.35;13.32;;;1.90;99.90;;;;;;5035155;28;20485;-73
2023/01/19 04:47:04;;;;;;;16.75;13.40;;;1.80;99.90;;;;;;5036109;28;20228;-73
2023/01/19 04:49:50;;;;;;;15.48;12.18;;;1.70;99.90;;;;;;5038531;28;20302;-73
2023/01/19 04:52:36;;;;;;;23.10;14.15;;;1.70;99.90;;;;;;5040366;28;20197;-72
2023/01/19 04:55:24;;;;;;;19.75;13.43;;;1.70;99.90;;;;;;5036777;28;20607;-73
2023/01/19 04:58:10;;;;;;;16.92;13.77;;;1.70;99.90;;;;;;5029442;28;20217;-72
2023/01/19 05:00:55;;;;;;;19.08;14.05;;;1.60;99.90;;;;;;5033687;28;20595;-72
2023/01/19 05:03:41;;;;;;;18.15;13.52;;;1.40;99.90;;;;;;5028940;28;20206;-72
2023/01/19 05:06:27;;;;;;;20.58;14.13;;;1.50;99.90;;;;;;5029361;28;20699;-73
2023/01/19 05:09:14;;;;;;;20.00;13.35;;;1.40;99.90;;;;;;5037178;28;20208;-72
2023/01/19 05:12:01;;;;;;;18.95;13.65;;;1.40;99.90;;;;;;5036153;28;20205;-73
2023/01/19 05:14:46;;;;;;;32.33;13.88;;;1.30;99.90;;;;;;5029843;28;20283;-73
2023/01/19 05:17:32;;;;;;;18.15;13.73;;;1.30;99.90;;;;;;5030028;28;20204;-73
2023/01/19 05:20:18;;;;;;;18.48;13.55;;;1.30;99.90;;;;;;5034773;28;20620;-72
2023/01/19 05:23:03;;;;;;;32.42;15.10;;;1.40;99.90;;;;;;5025429;28;20217;-73
2023/01/19 05:25:49;;;;;;;19.90;14.07;;;1.40;99.90;;;;;;5036005;28;20249;-72
2023/01/19 05:28:36;;;;;;;18.67;13.57;;;1.40;99.90;;;;;;5028532;28;20306;-72
2023/01/19 05:31:22;;;;;;;21.02;15.13;;;1.40;99.90;;;;;;5039521;28;20209;-73
2023/01/19 05:34:10;;;;;;;20.98;14.55;;;1.40;99.90;;;;;;5033128;28;20221;-72
2023/01/19 05:36:56;;;;;;;19.63;13.23;;;1.50;99.90;;;;;;5026010;28;20228;-73
2023/01/19 05:39:41;;;;;;;18.33;14.23;;;1.50;99.90;;;;;;5031455;28;20197;-72
2023/01/19 05:42:27;;;;;;;21.55;13.52;;;1.50;99.90;;;;;;5039398;28;20256;-73
2023/01/19 05:45:14;;;;;;;19.73;13.30;;;1.50;99.90;;;;;;5038418;28;20722;-72
2023/01/19 05:48:00;;;;;;;20.38;13.50;;;1.50;99.90;;;;;;5029073;28;20348;-72
2023/01/19 05:50:48;;;;;;;19.23;14.35;;;1.40;99.90;;;;;;5036394;28;20217;-72
2023/01/19 05:53:34;;;;;;;20.88;13.63;;;1.40;99.90;;;;;;5039379;28;20313;-73
2023/01/19 05:56:19;;;;;;;19.60;14.85;;;1.40;99.90;;;;;;5034100;22;20301;-76
2023/01/19 05:59:05;;;;;;;22.83;15.40;;;1.50;99.90;;;;;;5026506;28;20687;-76
2023/01/19 06:01:52;;;;;;;23.55;14.75;;;1.60;99.90;;;;;;5025412;28;20443;-76
2023/01/19 06:04:38;;;;;;;18.77;13.75;;;1.60;99.90;;;;;;5032291;28;20210;-77
2023/01/19 06:07:24;;;;;;;21.90;14.70;;;1.60;99.90;;;;;;5025823;28;20225;-76
2023/01/19 06:10:11;;;;;;;17.20;12.43;;;1.60;99.90;;;;;;5030156;28;20197;-76
2023/01/19 06:12:56;;;;;;;18.05;13.43;;;1.70;99.90;;;;;;5037291;28;20225;-76
2023/01/19 06:15:43;;;;;;;18.40;12.77;;;1.60;99.90;;;;;;5026397;28;20245;-76
2023/01/19 06:18:30;;;;;;;20.95;13.95;;;1.60;99.90;;;;;;5027724;28;20206;-76
2023/01/19 06:21:16;;;;;;;21.02;12.65;;;1.60;99.90;;;;;;5025443;28;20200;-76
2023/01/19 06:24:02;;;;;;;19.50;13.13;;;1.40;99.90;;;;;;5027955;28;20283;-76
2023/01/19 06:26:48;;;;;;;17.08;13.07;;;1.30;99.90;;;;;;5029704;28;20220;-76
2023/01/19 06:29:34;;;;;;;17.33;13.82;;;1.20;99.90;;;;;;5030379;28;20683;-76
2023/01/19 06:32:20;;;;;;;16.92;12.98;;;1.10;99.90;;;;;;5035667;28;20274;-76
2023/01/19 06:35:08;;;;;;;20.23;12.65;;;1.20;99.90;;;;;;5024101;28;20205;-76
2023/01/19 06:37:53;;;;;;;21.90;13.98;;;1.10;99.90;;;;;;5025316;28;20200;-76
2023/01/19 06:40:39;;;;;;;19.15;12.50;;;1.10;99.90;;;;;;5032273;28;20205;-76
2023/01/19 06:43:25;;;;;;;17.17;12.80;;;1.20;99.90;;;;;;5033037;28;20205;-76
2023/01/19 06:46:12;;;;;;;18.23;11.70;;;1.20;99.90;;;;;;5027363;28;20229;-77
2023/01/19 06:48:57;;;;;;;15.77;12.07;;;1.20;99.90;;;;;;5030420;28;20205;-76
2023/01/19 06:51:44;;;;;;;16.33;12.13;;;1.30;99.90;;;;;;5025445;28;20209;-76
2023/01/19 06:54:30;;;;;;;22.15;12.93;;;1.40;99.90;;;;;;5022409;28;20229;-76
2023/01/19 06:57:16;;;;;;;19.98;13.25;;;1.40;99.90;;;;;;5024868;28;20232;-76
2023/01/19 07:00:04;;;;;;;23.63;14.80;;;1.50;99.90;;;;;;5023589;28;20205;-76
2023/01/19 07:02:50;;;;;;;19.25;15.15;;;1.60;99.90;;;;;;5032747;28;20209;-76
2023/01/19 07:05:36;;;;;;;21.63;15.80;;;1.70;99.90;;;;;;5026582;28;20712;-76
2023/01/19 07:08:23;;;;;;;24.35;16.35;;;1.80;99.90;;;;;;5031616;28;20816;-76
2023/01/19 07:11:10;;;;;;;24.80;16.65;;;1.70;99.90;;;;;;5025958;28;20213;-76
2023/01/19 07:13:56;;;;;;;22.85;15.50;;;1.70;99.90;;;;;;5024877;28;20299;-77
2023/01/19 07:16:42;;;;;;;26.88;15.35;;;1.60;99.90;;;;;;5029340;28;20284;-77
2023/01/19 07:19:27;;;;;;;21.52;15.48;;;1.70;99.90;;;;;;5031453;28;20806;-76
2023/01/19 07:22:13;;;;;;;25.50;17.48;;;1.80;99.90;;;;;;5043879;28;20240;-75
2023/01/19 07:25:00;;;;;;;25.65;15.23;;;1.90;99.90;;;;;;5019239;28;20205;-76
2023/01/19 07:27:46;;;;;;;25.08;19.13;;;1.90;99.90;;;;;;5035650;28;20229;-76
2023/01/19 07:30:32;;;;;;;26.40;15.95;;;1.90;99.90;;;;;;5030808;28;20205;-76
2023/01/19 07:33:17;;;;;;;19.83;15.10;;;1.90;99.90;;;;;;5036589;28;20332;-76
2023/01/19 07:36:03;;;;;;;20.60;14.48;;;1.80;99.90;;;;;;5031154;28;20269;-76
2023/01/19 07:38:48;;;;;;;20.17;14.77;;;1.90;99.90;;;;;;5038883;28;20694;-76
2023/01/19 07:41:35;;;;;;;25.45;16.42;;;1.90;99.90;;;;;;5035678;28;20706;-76
2023/01/19 07:44:21;;;;;;;20.70;14.27;;;2.00;99.90;;;;;;5027602;28;20205;-76
2023/01/19 07:47:10;;;;;;;19.73;15.27;;;2.00;99.90;;;;;;5041867;28;20618;-76
2023/01/19 07:49:55;;;;;;;19.77;12.60;;;2.00;99.90;;;;;;5019588;28;20214;-76
2023/01/19 07:52:41;;;;;;;21.63;13.70;;;2.00;99.90;;;;;;5025847;28;20249;-76
2023/01/19 07:55:27;;;;;;;20.60;14.32;;;2.00;99.90;;;;;;5022051;28;20221;-76
2023/01/19 07:58:14;;;;;;;23.20;14.32;;;2.00;99.90;;;;;;5031447;28;20328;-76
2023/01/19 08:00:59;;;;;;;16.15;12.95;;;2.00;99.90;;;;;;5028673;28;20212;-76
2023/01/19 08:03:47;;;;;;;18.80;13.68;;;2.10;99.90;;;;;;5029418;28;20200;-76
2023/01/19 08:06:35;;;;;;;19.60;13.93;;;2.00;99.90;;;;;;5030557;28;20220;-76
2023/01/19 08:09:21;;;;;;;21.10;14.25;;;2.00;99.90;;;;;;5034603;28;20762;-76
2023/01/19 08:12:07;;;;;;;21.20;14.02;;;2.10;99.90;;;;;;5028776;28;20568;-76
2023/01/19 08:14:54;;;;;;;25.05;14.95;;;2.00;99.90;;;;;;5026010;28;20232;-76
2023/01/19 08:17:40;;;;;;;23.08;15.82;;;2.00;99.90;;;;;;5030096;28;20308;-76
2023/01/19 08:20:26;;;;;;;24.42;16.73;;;2.10;99.90;;;;;;5029320;28;20276;-76
2023/01/19 08:23:12;;;;;;;24.13;15.40;;;2.20;99.90;;;;;;5024961;28;20983;-77
2023/01/19 08:25:57;;;;;;;22.50;15.55;;;2.20;99.90;;;;;;5026606;28;20229;-76
2023/01/19 08:28:43;;;;;;;20.10;14.88;;;2.20;99.90;;;;;;5029149;28;20225;-76
2023/01/19 08:31:30;;;;;;;21.17;15.77;;;2.20;99.90;;;;;;5033028;28;20209;-76
2023/01/19 08:34:15;;;;;;;22.75;15.80;;;2.20;99.90;;;;;;5024135;28;20324;-76
2023/01/19 08:37:01;;;;;;;22.58;15.68;;;2.20;99.90;;;;;;5029977;28;20260;-76
2023/01/19 08:39:47;;;;;;;21.80;14.48;;;2.10;99.90;;;;;;5032654;28;20221;-76
2023/01/19 08:42:33;;;;;;;19.90;14.50;;;2.00;99.90;;;;;;5026397;28;20222;-76
2023/01/19 08:45:19;;;;;;;22.88;15.60;;;2.00;99.90;;;;;;5028648;28;20499;-76
2023/01/19 08:48:06;;;;;;;26.58;16.23;;;2.00;99.90;;;;;;5031007;28;20229;-76
2023/01/19 08:50:53;;;;;;;22.42;15.57;;;2.10;99.90;;;;;;5024540;28;20333;-76
2023/01/19 08:53:38;;;;;;;21.55;15.38;;;2.20;99.90;;;;;;5023932;28;20244;-76
2023/01/19 08:56:24;;;;;;;25.02;15.88;;;2.20;99.90;;;;;;5028394;28;20234;-76
2023/01/19 08:59:09;;;;;;;25.52;14.95;;;2.10;99.90;;;;;;5026100;28;20205;-76
2023/01/19 09:01:55;;;;;;;22.13;15.63;;;2.20;99.90;;;;;;5028090;28;20269;-75
2023/01/19 09:04:42;;;;;;;20.67;14.50;;;2.20;99.90;;;;;;5026582;28;20612;-76
2023/01/19 09:07:28;;;;;;;24.58;16.73;;;2.20;99.90;;;;;;5033950;28;20766;-76
2023/01/19 09:10:14;;;;;;;18.85;13.95;;;2.20;99.90;;;;;;5028560;28;20201;-76
2023/01/19 09:13:01;;;;;;;25.15;16.00;;;2.20;99.90;;;;;;5025320;28;20591;-76
2023/01/19 09:15:47;;;;;;;20.98;16.25;;;2.30;99.90;;;;;;5030709;28;20233;-76
2023/01/19 09:18:33;;;;;;;22.35;16.50;;;2.20;99.90;;;;;;5027710;28;20284;-77
2023/01/19 09:21:20;;;;;;;21.15;14.95;;;2.30;99.90;;;;;;5034629;28;20566;-76
2023/01/19 09:24:06;;;;;;;22.83;15.25;;;2.40;99.90;;;;;;5026988;28;20589;-75
2023/01/19 09:26:51;;;;;;;21.77;14.75;;;2.50;99.90;;;;;;5024737;28;20233;-76
2023/01/19 09:29:37;;;;;;;18.30;13.73;;;2.50;99.90;;;;;;5027481;28;20205;-77
2023/01/19 09:32:22;;;;;;;22.55;13.10;;;2.50;99.90;;;;;;5027947;28;20210;-76
2023/01/19 09:35:09;;;;;;;20.25;14.93;;;2.50;99.90;;;;;;5025862;28;20575;-76
2023/01/19 09:37:56;;;;;;;21.13;14.25;;;2.60;99.90;;;;;;5033194;28;20201;-76
2023/01/19 09:40:44;;;;;;;34.25;22.88;;;2.60;99.90;;;;;;5032089;28;20652;-76
2023/01/19 09:43:38;;;;;;;23.98;16.70;;;2.50;99.90;;;;;;5028443;28;20206;-76
2023/01/19 09:46:32;;;;;;;26.52;14.45;;;2.50;99.90;;;;;;5034280;28;20763;-76
2023/01/19 09:49:22;;;;;;;21.80;15.02;;;2.60;99.90;;;;;;5025834;28;20268;-76
2023/01/19 09:52:10;;;;;;;22.00;15.10;;;2.60;99.90;;;;;;5020373;28;20210;-76
2023/01/19 09:54:58;;;;;;;25.17;13.50;;;2.60;99.90;;;;;;5025212;28;20206;-76
2023/01/19 09:57:44;;;;;;;21.00;14.02;;;2.60;99.90;;;;;;5027577;28;20588;-76
2023/01/19 10:00:31;;;;;;;17.73;13.20;;;2.70;99.90;;;;;;5029290;28;20205;-76
2023/01/19 10:03:17;;;;;;;20.52;13.30;;;2.80;99.90;;;;;;5022451;28;20685;-75
2023/01/19 10:06:06;;;;;;;18.27;12.63;;;2.90;99.90;;;;;;5025896;28;20229;-77
2023/01/19 10:09:02;;;;;;;17.05;13.07;;;3.00;99.90;;;;;;5027534;28;20640;-77
2023/01/19 10:11:56;;;;;;;22.80;13.27;;;3.00;99.90;;;;;;5018552;28;20445;-77
2023/01/19 10:14:46;;;;;;;15.23;11.77;;;3.30;99.90;;;;;;5028099;28;20228;-76
2023/01/19 10:17:43;;;;;;;17.17;12.65;;;3.50;99.90;;;;;;5036645;28;20340;-77
2023/01/19 10:20:32;;;;;;;15.50;10.82;;;3.50;99.90;;;;;;5029839;28;20753;-76
2023/01/19 10:23:35;;;;;;;14.75;10.27;;;3.50;99.90;;;;;;5027640;28;20615;-76
2023/01/19 10:26:24;;;;;;;14.60;9.45;;;3.70;99.90;;;;;;5034841;28;20709;-77
2023/01/19 10:29:20;;;;;;;15.00;9.85;;;3.70;99.90;;;;;;5033554;28;20241;-76
2023/01/19 10:32:10;;;;;;;16.02;10.23;;;3.70;99.90;;;;;;5026126;28;20337;-76
2023/01/19 10:34:57;;;;;;;17.92;11.23;;;3.70;99.90;;;;;;5019532;28;20581;-76
2023/01/19 10:37:43;;;;;;;14.68;10.60;;;3.50;99.90;;;;;;5038917;28;20323;-76
2023/01/19 10:40:33;;;;;;;13.82;10.07;;;3.50;99.90;;;;;;5031118;28;20564;-77
2023/01/19 10:43:43;;;;;;;18.77;10.18;;;3.60;99.90;;;;;;5027029;28;20252;-76
2023/01/19 10:46:37;;;;;;;15.70;11.45;;;3.80;99.90;;;;;;5031799;28;20225;-77
2023/01/19 10:49:26;;;;;;;20.50;10.55;;;3.90;99.90;;;;;;5035476;28;20717;-77
2023/01/19 10:52:25;;;;;;;14.68;10.63;;;4.10;99.90;;;;;;5023039;28;20290;-77
2023/01/19 10:55:24;;;;;;;18.92;11.48;;;4.20;99.90;;;;;;5038179;28;20206;-76
2023/01/19 10:58:28;;;;;;;17.02;11.35;;;4.10;99.90;;;;;;5030570;28;20200;-77
2023/01/19 11:01:16;;;;;;;14.23;10.45;;;4.00;99.90;;;;;;5018323;28;20209;-77
2023/01/19 11:04:20;;;;;;;18.40;10.45;;;4.00;99.90;;;;;;5024628;28;20750;-77
2023/01/19 11:07:14;;;;;;;14.38;10.50;;;3.90;99.90;;;;;;5016899;28;20303;-77
2023/01/19 11:10:20;;;;;;;16.23;10.60;;;3.80;99.90;;;;;;5020987;28;20284;-77
2023/01/19 11:13:12;;;;;;;21.13;12.25;;;3.60;99.90;;;;;;5027024;28;20375;-77
2023/01/19 11:16:05;;;;;;;17.90;12.00;;;3.50;99.90;;;;;;5026759;28;20225;-76
2023/01/19 11:18:53;;;;;;;18.55;12.75;;;3.40;99.90;;;;;;5015834;28;20587;-76
2023/01/19 11:21:40;;;;;;;17.85;12.60;;;3.40;99.90;;;;;;5021553;28;20313;-76
2023/01/19 11:24:26;;;;;;;16.50;12.85;;;3.40;99.90;;;;;;5025156;28;20210;-77
2023/01/19 11:27:17;;;;;;;19.60;13.07;;;3.40;99.90;;;;;;5026809;28;20217;-76
2023/01/19 11:30:09;;;;;;;19.45;13.13;;;3.40;99.90;;;;;;5014814;28;20221;-77
2023/01/19 11:32:55;;;;;;;19.88;12.52;;;3.40;99.90;;;;;;5036180;28;20540;-77
2023/01/19 11:35:41;;;;;;;21.80;12.82;;;3.50;99.90;;;;;;5030976;28;20225;-76
2023/01/19 11:38:28;;;;;;;20.17;13.70;;;3.50;99.90;;;;;;5034362;28;20284;-77
2023/01/19 11:41:18;;;;;;;17.92;12.77;;;3.40;99.90;;;;;;5020948;28;20206;-76
2023/01/19 11:44:13;;;;;;;21.60;14.48;;;3.40;99.90;;;;;;5030498;28;20206;-76
2023/01/19 11:47:02;;;;;;;20.77;13.85;;;3.30;99.90;;;;;;5033240;28;20388;-76
2023/01/19 11:49:57;;;;;;;21.08;12.63;;;3.30;99.90;;;;;;5036219;28;20229;-77
2023/01/19 11:52:47;;;;;;;19.95;13.68;;;3.40;99.90;;;;;;5031520;28;20283;-76
2023/01/19 11:58:05;;;;;;;18.55;14.02;;;3.20;99.90;;;;;;5062394;28;20217;-71
2023/01/19 12:00:54;;;;;;;19.27;13.60;;;3.40;99.90;;;;;;5038401;28;20688;-71
2023/01/19 12:03:43;;;;;;;28.25;13.25;;;3.40;99.90;;;;;;5064739;28;20675;-71
2023/01/19 12:06:32;;;;;;;21.80;14.77;;;3.40;99.90;;;;;;5065464;28;20223;-71
2023/01/19 12:09:22;;;;;;;18.95;13.23;;;3.30;99.90;;;;;;5067720;28;20223;-71
2023/01/19 12:12:12;;;;;;;26.23;15.90;;;3.30;99.90;;;;;;5049655;28;20631;-71
2023/01/19 12:15:04;;;;;;;20.25;13.73;;;3.30;99.90;;;;;;5058424;28;20212;-71
2023/01/19 12:17:53;;;;;;;21.63;14.48;;;3.30;99.90;;;;;;5054765;28;20219;-71
2023/01/19 12:20:43;;;;;;;19.63;14.30;;;3.30;99.90;;;;;;5045266;28;20301;-71
2023/01/19 12:23:38;;;;;;;20.40;13.63;;;3.40;99.90;;;;;;5065483;28;20728;-71
2023/01/19 12:26:32;;;;;;;25.23;13.00;;;3.40;99.90;;;;;;5067274;28;20362;-71
2023/01/19 12:29:21;;;;;;;17.30;12.32;;;3.40;99.90;;;;;;5060074;28;20232;-71
2023/01/19 12:32:34;;;;;;;21.73;15.25;;;3.30;99.90;;;;;;5034763;28;20267;-71
2023/01/19 12:35:53;;;;;;;20.67;13.82;;;3.30;99.90;;;;;;5045257;28;20208;-71
2023/01/19 12:38:48;;;;;;;20.55;14.38;;;3.30;99.90;;;;;;5048001;28;20222;-71
2023/01/19 12:41:35;;;;;;;18.90;13.43;;;3.30;99.90;;;;;;5044452;28;20681;-71
2023/01/19 12:44:32;;;;;;;20.67;13.63;;;3.40;99.90;;;;;;5051153;28;20205;-71
2023/01/19 12:47:23;;;;;;;18.40;14.13;;;3.30;99.90;;;;;;5061155;28;20236;-71
2023/01/19 12:50:17;;;;;;;24.38;14.60;;;3.30;99.90;;;;;;5054541;28;20232;-72
2023/01/19 12:53:07;;;;;;;22.52;13.27;;;3.20;99.90;;;;;;5052679;28;20208;-72
2023/01/19 12:55:59;;;;;;;17.33;14.18;;;3.20;99.90;;;;;;5053669;28;20239;-72
2023/01/19 12:58:49;;;;;;;17.48;12.45;;;3.40;99.90;;;;;;5052672;28;20709;-71
2023/01/19 13:01:34;;;;;;;21.10;15.02;;;3.50;99.90;;;;;;5050241;28;20204;-71
2023/01/19 13:04:33;;;;;;;19.60;13.45;;;3.50;99.90;;;;;;5045177;28;20216;-71
2023/01/19 13:07:19;;;;;;;26.30;13.15;;;3.50;99.90;;;;;;5050489;28;20351;-72
2023/01/19 13:10:38;;;;;;;22.58;12.95;;;3.50;99.90;;;;;;5046192;28;20345;-71
2023/01/19 13:13:25;;;;;;;21.92;13.70;;;3.50;99.90;;;;;;5044749;28;20201;-72
2023/01/19 13:16:48;;;;;;;17.35;12.02;;;3.60;99.90;;;;;;5057545;28;20223;-71
2023/01/19 13:19:50;;;;;;;21.25;12.02;;;3.50;99.90;;;;;;5051322;28;20201;-72
2023/01/19 13:23:15;;;;;;;17.42;11.60;;;3.50;99.90;;;;;;5052764;28;20340;-72
2023/01/19 13:26:04;;;;;;;17.60;12.85;;;3.60;99.90;;;;;;5056016;28;20591;-71
2023/01/19 13:28:53;;;;;;;18.00;13.07;;;3.50;99.90;;;;;;5046798;28;20240;-72
2023/01/19 13:31:43;;;;;;;18.42;12.20;;;3.40;99.90;;;;;;5058969;28;20221;-72
2023/01/19 13:34:31;;;;;;;18.35;11.73;;;3.50;99.90;;;;;;5047972;28;20205;-72
2023/01/19 13:37:21;;;;;;;17.63;11.75;;;3.60;99.90;;;;;;5047652;28;20232;-72
2023/01/19 13:40:14;;;;;;;18.55;12.05;;;3.60;99.90;;;;;;5041433;28;20201;-71
2023/01/19 13:43:01;;;;;;;18.75;12.05;;;3.60;99.90;;;;;;5044386;28;20205;-73
2023/01/19 13:45:49;;;;;;;16.95;12.02;;;3.60;99.90;;;;;;5046709;28;20224;-74
2023/01/19 13:48:35;;;;;;;19.95;12.43;;;3.60;99.90;;;;;;5048267;28;20361;-74
2023/01/19 13:51:22;;;;;;;15.40;11.75;;;3.50;99.90;;;;;;5045466;28;20210;-73
2023/01/19 13:54:16;;;;;;;15.35;11.25;;;3.40;99.90;;;;;;5051972;28;20763;-74
2023/01/19 13:57:02;;;;;;;20.35;11.80;;;3.50;99.90;;;;;;5050084;28;20336;-73
2023/01/19 14:00:01;;;;;;;16.35;12.30;;;3.50;99.90;;;;;;5038560;28;20204;-72
2023/01/19 14:02:59;;;;;;;18.55;11.60;;;3.40;99.90;;;;;;5042927;28;20208;-72
2023/01/19 14:05:45;;;;;;;17.05;11.50;;;3.40;99.90;;;;;;5047359;28;20250;-72
2023/01/19 14:08:31;;;;;;;16.67;11.48;;;3.40;99.90;;;;;;5041544;28;20225;-73
2023/01/19 14:11:18;;;;;;;14.55;11.50;;;3.30;99.90;;;;;;5046325;28;20681;-70
2023/01/19 14:14:03;;;;;;;15.93;10.70;;;3.30;99.90;;;;;;5051687;28;20248;-73
2023/01/19 14:16:49;;;;;;;25.67;15.30;;;3.40;99.90;;;;;;5049448;28;20263;-72
2023/01/19 14:19:48;;;;;;;17.25;11.73;;;3.50;99.90;;;;;;5043045;28;20789;-73
2023/01/19 14:22:42;;;;;;;19.83;12.63;;;3.50;99.90;;;;;;5044608;28;20202;-72
2023/01/19 14:25:29;;;;;;;16.80;12.00;;;3.50;99.90;;;;;;5049061;28;20575;-72
2023/01/19 14:28:39;;;;;;;16.77;11.90;;;3.60;99.90;;;;;;5045710;28;20786;-72
2023/01/19 14:31:27;;;;;;;17.92;12.55;;;3.50;99.90;;;;;;5050805;28;20201;-73
2023/01/19 14:34:37;;;;;;;15.85;11.95;;;3.50;99.90;;;;;;5052463;28;20204;-73
2023/01/19 14:37:25;;;;;;;17.30;11.02;;;3.50;99.90;;;;;;5042152;28;20364;-73